Time;durP1;ratioP1;P1;durP2;ratioP2;P2;SDS_P1;SDS_P2;PMS_P1;PMS_P2;Temp;Humidity;BMP_temperature;BMP_pressure;BME280_temperature;BME280_humidity;BME280_pressure;Samples;Min_cycle;Max_cycle;Signal;HPM_P1;HPM_P2
2022/01/17 00:02:18;;;;;;;;;10.25;8.75;;;;;20.19;35.64;103048.84;5060885;28;51975;-56
2022/01/17 00:04:44;;;;;;;;;8.00;7.75;;;;;20.16;35.75;103052.81;5076918;28;51365;-56
2022/01/17 00:07:09;;;;;;;;;12.50;12.50;;;;;20.15;35.61;103051.09;5059631;28;51161;-56
2022/01/17 00:09:35;;;;;;;;;11.25;9.50;;;;;20.14;35.67;103057.63;5072765;28;51113;-55
2022/01/17 00:12:00;;;;;;;;;9.25;9.00;;;;;20.15;35.57;103061.25;5078503;28;50980;-57
2022/01/17 00:14:33;;;;;;;;;9.75;9.75;;;;;20.14;35.95;103062.28;5076928;28;51016;-57
2022/01/17 00:17:11;;;;;;;;;9.75;8.00;;;;;20.13;35.87;103055.03;5075235;28;51037;-57
2022/01/17 00:19:42;;;;;;;;;10.75;9.75;;;;;20.11;35.58;103054.31;5077803;28;51006;-57
2022/01/17 00:22:08;;;;;;;;;8.50;8.00;;;;;20.09;35.45;103057.25;5059727;27;51018;-56
2022/01/17 00:24:34;;;;;;;;;12.50;11.50;;;;;20.08;35.60;103055.53;5056892;28;51348;-57
2022/01/17 00:26:59;;;;;;;;;7.50;6.75;;;;;20.08;35.70;103063.78;5077360;27;51325;-57
2022/01/17 00:29:26;;;;;;;;;11.50;9.75;;;;;20.08;36.06;103046.41;5078940;28;51128;-57
2022/01/17 00:31:51;;;;;;;;;12.50;9.00;;;;;20.06;36.06;103043.84;5077533;28;51017;-57
2022/01/17 00:34:17;;;;;;;;;9.00;9.00;;;;;20.06;35.92;103045.72;5078381;28;50986;-57
2022/01/17 00:36:42;;;;;;;;;8.50;8.00;;;;;20.05;35.70;103046.75;5066029;28;50921;-57
2022/01/17 00:39:07;;;;;;;;;5.25;5.25;;;;;20.04;35.86;103056.91;5073626;28;51180;-57
2022/01/17 00:41:33;;;;;;;;;13.25;10.50;;;;;20.04;35.82;103056.91;5057641;28;51835;-56
2022/01/17 00:43:58;;;;;;;;;7.25;7.00;;;;;20.03;36.04;103057.06;5068211;28;50958;-58
2022/01/17 00:46:24;;;;;;;;;10.25;8.75;;;;;20.01;36.09;103057.25;5069183;28;51576;-57
2022/01/17 00:48:51;;;;;;;;;10.00;8.75;;;;;20.01;35.88;103051.75;5077443;28;50962;-57
2022/01/17 00:51:17;;;;;;;;;11.25;8.25;;;;;20.01;36.03;103056.34;5078152;28;51008;-58
2022/01/17 00:53:42;;;;;;;;;8.50;8.50;;;;;20.00;35.88;103063.75;5077986;28;51091;-57
2022/01/17 00:56:07;;;;;;;;;9.00;7.50;;;;;19.98;35.83;103054.81;5068702;28;51260;-57
2022/01/17 00:58:33;;;;;;;;;12.00;7.50;;;;;19.99;35.98;103052.91;5077965;28;51157;-58
2022/01/17 01:00:59;;;;;;;;;8.00;8.00;;;;;19.98;35.97;103056.69;5077926;28;51033;-57
2022/01/17 01:03:25;;;;;;;;;9.25;7.00;;;;;19.98;36.22;103052.06;5058969;28;51176;-57
2022/01/17 01:05:50;;;;;;;;;12.00;8.00;;;;;19.96;36.29;103048.59;5063825;28;51157;-58
2022/01/17 01:08:15;;;;;;;;;10.00;8.75;;;;;19.95;36.13;103054.28;5074087;28;51160;-57
2022/01/17 01:10:41;;;;;;;;;10.00;8.75;;;;;19.95;36.25;103044.13;5057313;28;51739;-57
2022/01/17 01:13:06;;;;;;;;;7.50;7.50;;;;;19.94;36.25;103047.91;5057732;28;50934;-58
2022/01/17 01:18:14;;;;;;;;;9.25;7.75;;;;;19.94;36.19;103050.66;5076408;27;50892;-57
2022/01/17 01:28:42;;;;;;;;;8.00;8.00;;;;;19.91;36.22;103050.16;5077648;28;51104;-57
2022/01/17 01:31:14;;;;;;;;;8.75;8.00;;;;;19.91;36.35;103051.00;5076638;27;51019;-57
2022/01/17 01:33:43;;;;;;;;;11.00;8.75;;;;;19.90;36.26;103052.00;5077416;28;51400;-57
2022/01/17 01:36:15;;;;;;;;;10.25;8.50;;;;;19.89;35.99;103045.66;5064512;28;51005;-57
2022/01/17 01:38:41;;;;;;;;;10.50;7.00;;;;;19.88;36.05;103038.41;5057420;28;51242;-58
2022/01/17 01:41:07;;;;;;;;;8.75;8.25;;;;;19.86;36.29;103046.00;5060619;28;51760;-57
2022/01/17 01:43:33;;;;;;;;;10.50;10.50;;;;;19.87;36.34;103055.09;5071946;28;51476;-57
2022/01/17 01:46:01;;;;;;;;;9.75;7.00;;;;;19.85;35.97;103052.50;5066268;28;51141;-56
2022/01/17 01:48:29;;;;;;;;;9.50;8.00;;;;;19.85;36.25;103052.50;5077200;28;51247;-57
2022/01/17 01:50:54;;;;;;;;;6.50;6.25;;;;;19.84;36.26;103053.56;5075651;28;52126;-57
2022/01/17 01:53:22;;;;;;;;;10.00;7.00;;;;;19.85;36.11;103062.66;5077396;28;51111;-57
2022/01/17 01:55:47;;;;;;;;;7.50;7.50;;;;;19.83;36.36;103057.31;5065367;27;51136;-57
2022/01/17 01:58:13;;;;;;;;;9.50;9.00;;;;;19.83;36.33;103053.72;5077493;27;51036;-57
2022/01/17 02:00:38;;;;;;;;;10.00;7.00;;;;;19.83;36.55;103059.22;5076402;28;51020;-57
2022/01/17 02:03:05;;;;;;;;;9.75;9.75;;;;;19.83;36.76;103061.97;5067264;28;50987;-57
2022/01/17 02:05:30;;;;;;;;;6.50;6.00;;;;;19.83;36.54;103070.22;5071761;28;51034;-57
2022/01/17 02:07:56;;;;;;;;;8.75;7.75;;;;;19.81;36.59;103064.88;5075578;28;51316;-57
2022/01/17 02:10:21;;;;;;;;;8.00;8.00;;;;;19.81;36.28;103058.53;5076751;28;51032;-57
2022/01/17 02:12:47;;;;;;;;;8.25;7.75;;;;;19.79;36.30;103066.91;5076652;28;51033;-57
2022/01/17 02:15:17;;;;;;;;;8.75;7.75;;;;;19.80;36.36;103065.03;5064825;28;51080;-57
2022/01/17 02:17:52;;;;;;;;;9.25;8.25;;;;;19.79;36.83;103066.06;5056651;28;51064;-57
2022/01/17 02:20:23;;;;;;;;;8.00;6.25;;;;;19.78;36.33;103062.44;5056361;28;52210;-57
2022/01/17 02:22:49;;;;;;;;;9.75;9.00;;;;;19.77;36.50;103066.22;5063008;27;51333;-57
2022/01/17 02:25:15;;;;;;;;;10.00;9.00;;;;;19.78;36.76;103067.09;5068104;28;50995;-57
2022/01/17 02:27:41;;;;;;;;;7.75;7.50;;;;;19.77;36.65;103059.88;5091189;27;51228;-58
2022/01/17 02:30:07;;;;;;;;;7.50;7.00;;;;;19.77;36.46;103065.38;5093158;27;51717;-58
2022/01/17 02:32:33;;;;;;;;;10.50;8.75;;;;;19.76;36.82;103052.63;5076604;28;51104;-58
2022/01/17 02:35:20;;;;;;;;;12.75;9.25;;;;;19.76;36.42;103063.66;5072277;27;51066;-58
2022/01/17 02:37:46;;;;;;;;;7.00;7.00;;;;;19.74;36.42;103054.69;5072769;28;51184;-59
2022/01/17 02:40:14;;;;;;;;;12.00;7.50;;;;;19.73;36.66;103048.34;5076153;27;51824;-57
2022/01/17 02:42:40;;;;;;;;;7.25;6.00;;;;;19.73;36.53;103051.09;5076705;27;51304;-56
2022/01/17 02:47:54;;;;;;;;;7.25;7.25;;;;;19.72;36.56;103040.25;5055950;28;51190;-56
2022/01/17 02:50:19;;;;;;;;;7.00;6.00;;;;;19.71;36.74;103044.91;5074578;28;51046;-55
2022/01/17 02:52:45;;;;;;;;;8.75;6.75;;;;;19.70;36.84;103043.19;5072558;28;51241;-56
2022/01/17 02:55:11;;;;;;;;;8.25;7.00;;;;;19.71;36.80;103046.78;5061132;28;50967;-56
2022/01/17 02:57:36;;;;;;;;;6.00;6.00;;;;;19.70;36.82;103039.56;5076338;28;50989;-57
2022/01/17 03:00:03;;;;;;;;;7.75;7.75;;;;;19.69;36.46;103049.69;5068796;28;51870;-56
2022/01/17 03:02:28;;;;;;;;;5.75;5.75;;;;;19.68;36.44;103049.84;5074423;28;51143;-57
2022/01/17 03:04:54;;;;;;;;;8.50;8.50;;;;;19.68;36.79;103055.34;5058312;28;51397;-56
2022/01/17 03:07:19;;;;;;;;;10.75;9.25;;;;;19.67;36.72;103056.38;5058583;28;51004;-57
2022/01/17 03:09:59;;;;;;;;;6.75;6.75;;;;;19.67;36.72;103053.63;5055250;28;51060;-56
2022/01/17 03:12:25;;;;;;;;;7.75;7.75;;;;;19.66;36.51;103058.25;5056101;28;51545;-55
2022/01/17 03:14:50;;;;;;;;;9.00;8.25;;;;;19.66;36.91;103061.00;5065339;28;51144;-54
2022/01/17 03:17:15;;;;;;;;;14.00;9.50;;;;;19.65;36.77;103066.69;5075761;28;51395;-55
2022/01/17 03:19:40;;;;;;;;;12.00;10.75;;;;;19.64;36.62;103062.22;5057737;28;51026;-54
2022/01/17 03:22:06;;;;;;;;;7.75;7.00;;;;;19.64;36.80;103064.97;5055730;28;50853;-54
2022/01/17 03:24:31;;;;;;;;;8.75;8.75;;;;;19.63;36.69;103075.09;5073846;28;51261;-55
2022/01/17 03:26:56;;;;;;;;;8.75;8.75;;;;;19.62;36.79;103069.75;5070238;27;51145;-56
2022/01/17 03:29:22;;;;;;;;;8.75;7.50;;;;;19.62;36.75;103078.00;5059072;28;51794;-56
2022/01/17 03:31:47;;;;;;;;;10.25;8.75;;;;;19.62;36.88;103072.50;5059244;28;51067;-57
2022/01/17 03:34:13;;;;;;;;;9.25;8.50;;;;;19.62;36.85;103078.00;5059149;28;51026;-57
2022/01/17 03:36:38;;;;;;;;;9.25;7.00;;;;;19.61;36.57;103085.41;5076038;28;51349;-57
2022/01/17 03:39:03;;;;;;;;;9.75;7.75;;;;;19.59;36.88;103096.56;5059749;28;51049;-56
2022/01/17 03:41:29;;;;;;;;;7.50;7.50;;;;;19.60;36.74;103087.28;5064550;28;51153;-57
2022/01/17 03:43:54;;;;;;;;;5.50;4.25;;;;;19.59;36.78;103085.56;5079454;28;51133;-55
2022/01/17 03:46:19;;;;;;;;;10.75;8.75;;;;;19.59;37.02;103087.41;5065209;28;51151;-55
2022/01/17 03:48:45;;;;;;;;;9.75;8.00;;;;;19.57;36.68;103084.84;5058897;28;51347;-53
2022/01/17 03:51:10;;;;;;;;;12.25;7.50;;;;;19.58;36.79;103088.44;5076367;28;50967;-57
2022/01/17 03:53:36;;;;;;;;;9.75;4.75;;;;;19.57;36.79;103093.09;5078079;28;51025;-57
2022/01/17 03:56:02;;;;;;;;;4.50;4.00;;;;;19.57;36.93;103093.09;5067223;27;51101;-56
2022/01/17 03:58:27;;;;;;;;;9.00;7.00;;;;;19.57;37.01;103095.84;5058681;28;51140;-57
2022/01/17 04:00:55;;;;;;;;;6.00;6.00;;;;;19.56;36.94;103109.75;5058723;28;51001;-55
2022/01/17 04:03:21;;;;;;;;;8.50;7.00;;;;;19.56;37.06;103110.63;5075341;28;51092;-55
2022/01/17 04:05:47;;;;;;;;;7.00;6.50;;;;;19.57;37.21;103108.72;5069751;27;51236;-56
2022/01/17 04:08:12;;;;;;;;;9.00;8.50;;;;;19.55;36.89;103117.13;5057922;28;51193;-55
2022/01/17 04:10:38;;;;;;;;;7.75;7.00;;;;;19.56;37.14;103118.00;5058435;28;51017;-55
2022/01/17 04:13:04;;;;;;;;;11.25;9.50;;;;;19.54;36.95;103109.88;5058905;28;51097;-56
2022/01/17 04:15:32;;;;;;;;;7.75;7.75;;;;;19.54;36.84;103109.88;5070736;28;51409;-56
2022/01/17 04:17:58;;;;;;;;;7.75;6.50;;;;;19.53;36.95;103112.81;5061820;28;52663;-57
2022/01/17 04:20:28;;;;;;;;;13.50;10.00;;;;;19.53;37.07;103124.66;5078655;28;50962;-56
2022/01/17 04:22:59;;;;;;;;;8.75;8.50;;;;;19.52;36.98;103128.44;5078737;28;50975;-55
2022/01/17 04:25:29;;;;;;;;;6.75;6.75;;;;;19.51;36.94;103129.47;5078085;28;51177;-55
2022/01/17 04:27:55;;;;;;;;;8.50;8.25;;;;;19.50;36.81;103125.00;5075181;27;51182;-55
2022/01/17 04:30:21;;;;;;;;;9.50;8.25;;;;;19.50;36.73;103125.00;5078823;28;51519;-54
2022/01/17 04:32:48;;;;;;;;;7.00;7.00;;;;;19.51;36.83;103129.47;5078667;28;51056;-56
2022/01/17 04:35:20;;;;;;;;;8.25;8.25;;;;;19.49;36.55;103116.91;5074499;28;51000;-54
2022/01/17 04:37:53;;;;;;;;;6.50;6.50;;;;;19.48;37.01;103121.50;5057769;28;52148;-54
2022/01/17 04:40:19;;;;;;;;;9.50;7.00;;;;;19.48;37.15;103115.16;5058047;28;51349;-54
2022/01/17 04:42:47;;;;;;;;;10.00;9.00;;;;;19.48;36.97;103109.66;5074821;28;51186;-54
2022/01/17 04:45:17;;;;;;;;;6.00;5.50;;;;;19.46;36.84;103112.56;5069802;28;51204;-57
2022/01/17 04:47:47;;;;;;;;;10.00;7.00;;;;;19.46;36.98;103115.31;5065383;28;52000;-57
2022/01/17 04:50:22;;;;;;;;;9.00;7.00;;;;;19.45;36.80;103124.59;5059901;28;51172;-58
2022/01/17 04:52:48;;;;;;;;;6.50;5.75;;;;;19.45;37.08;103127.34;5058244;28;51052;-57
2022/01/17 04:55:17;;;;;;;;;7.00;7.00;;;;;19.45;36.83;103129.22;5068814;28;51030;-58
2022/01/17 04:57:44;;;;;;;;;7.50;6.00;;;;;19.46;36.79;103131.81;5057726;28;51751;-58
2022/01/17 05:00:12;;;;;;;;;9.25;9.00;;;;;19.47;36.98;103140.91;5057610;28;51253;-58
2022/01/17 05:02:38;;;;;;;;;12.00;8.75;;;;;19.45;36.66;103142.97;5064388;28;51040;-58
2022/01/17 05:05:04;;;;;;;;;10.50;8.50;;;;;19.45;36.56;103138.34;5058904;27;51530;-58
2022/01/17 05:07:31;;;;;;;;;9.75;8.25;;;;;19.44;36.29;103124.75;5057264;28;52636;-58
2022/01/17 05:09:57;;;;;;;;;9.75;8.50;;;;;19.43;36.44;103134.03;5057314;28;51357;-58
2022/01/17 05:12:23;;;;;;;;;8.50;8.50;;;;;19.42;36.29;103130.41;5065347;28;51038;-59
2022/01/17 05:14:51;;;;;;;;;6.00;6.00;;;;;19.41;36.08;103136.94;5066629;28;51386;-59
2022/01/17 05:19:58;;;;;;;;;10.50;9.00;;;;;19.38;35.98;103141.88;5077820;27;51404;-58
2022/01/17 05:22:26;;;;;;;;;9.50;9.00;;;;;19.38;36.07;103152.88;5077764;28;51131;-58
2022/01/17 05:24:52;;;;;;;;;13.25;13.00;;;;;19.36;36.13;103146.69;5060677;28;51021;-58
2022/01/17 05:27:17;;;;;;;;;10.00;9.00;;;;;19.36;35.85;103161.28;5085092;27;51828;-58
2022/01/17 05:29:43;;;;;;;;;11.00;10.25;;;;;19.34;35.76;103149.59;5098213;27;51018;-58
2022/01/17 05:32:08;;;;;;;;;10.75;9.00;;;;;19.33;36.09;103161.59;5064387;27;51213;-58
2022/01/17 05:34:34;;;;;;;;;9.75;8.00;;;;;19.31;36.01;103152.66;5071787;28;51345;-58
2022/01/17 05:37:01;;;;;;;;;10.25;10.25;;;;;19.30;35.85;103150.94;5071630;28;51742;-58
2022/01/17 05:39:26;;;;;;;;;9.00;9.00;;;;;19.30;35.85;103156.44;5077266;28;51168;-58
2022/01/17 05:41:52;;;;;;;;;12.25;10.25;;;;;19.28;35.91;103153.00;5077440;28;51065;-57
2022/01/17 05:44:17;;;;;;;;;9.00;9.00;;;;;19.26;35.88;103161.38;5065864;28;51110;-58
2022/01/17 05:46:42;;;;;;;;;11.00;8.00;;;;;19.23;35.60;103150.69;5072878;28;50924;-57
2022/01/17 05:49:08;;;;;;;;;14.50;10.00;;;;;19.23;35.72;103167.19;5062559;27;51077;-57
2022/01/17 05:51:33;;;;;;;;;10.75;10.75;;;;;19.22;35.82;103170.09;5068466;28;51297;-58
2022/01/17 05:53:59;;;;;;;;;11.50;10.25;;;;;19.20;35.54;103169.41;5077670;28;51015;-58
2022/01/17 05:56:24;;;;;;;;;12.00;11.75;;;;;19.19;35.76;103174.03;5063402;28;50992;-58
2022/01/17 05:58:49;;;;;;;;;12.50;11.00;;;;;19.18;35.79;103174.19;5056783;28;51145;-58
2022/01/17 06:01:15;;;;;;;;;14.00;13.00;;;;;19.16;35.73;103177.06;5067770;28;51390;-59
2022/01/17 06:03:41;;;;;;;;;12.00;11.50;;;;;19.15;35.64;103169.00;5057252;28;51020;-58
2022/01/17 06:06:06;;;;;;;;;9.50;8.00;;;;;19.14;35.78;103156.28;5056905;28;51798;-56
2022/01/17 06:08:33;;;;;;;;;12.75;11.00;;;;;19.12;35.82;103159.19;5056477;28;51358;-54
2022/01/17 06:10:59;;;;;;;;;12.25;10.25;;;;;19.12;36.52;103156.44;5071825;27;51065;-57
2022/01/17 06:13:24;;;;;;;;;9.00;7.00;;;;;19.15;36.27;103155.25;5068773;28;50994;-53
2022/01/17 06:15:50;;;;;;;;;10.25;6.50;;;;;19.24;36.59;103159.81;5068086;28;51779;-57
2022/01/17 06:18:15;;;;;;;;;9.00;8.00;;;;;19.35;36.75;103161.44;5056112;28;50977;-58
2022/01/17 06:20:40;;;;;;;;;12.75;8.50;;;;;19.45;36.62;103165.81;5075486;28;51199;-56
2022/01/17 06:23:06;;;;;;;;;8.75;6.75;;;;;19.54;36.90;103156.63;5068254;28;51059;-57
2022/01/17 06:25:31;;;;;;;;;6.25;5.25;;;;;19.65;36.84;103157.41;5068730;28;51401;-55
2022/01/17 06:27:57;;;;;;;;;7.00;6.00;;;;;19.75;36.82;103163.66;5094323;27;51076;-55
2022/01/17 06:30:22;;;;;;;;;8.75;6.75;;;;;19.84;37.17;103168.19;5097366;27;50951;-54
2022/01/17 06:32:48;;;;;;;;;8.00;4.00;;;;;19.91;37.25;103185.78;5090955;27;51093;-54
2022/01/17 06:35:13;;;;;;;;;6.50;6.00;;;;;19.99;37.01;103190.47;5076158;27;50991;-56
2022/01/17 06:37:39;;;;;;;;;7.25;4.75;;;;;20.07;37.26;103196.03;5074213;28;51194;-50
2022/01/17 06:40:07;;;;;;;;;6.00;5.50;;;;;20.14;37.30;103192.47;5056479;28;51710;-53
2022/01/17 06:42:33;;;;;;;;;7.25;5.50;;;;;20.24;37.07;103205.25;5071780;27;51032;-55
2022/01/17 06:45:00;;;;;;;;;6.00;5.00;;;;;20.30;36.95;103199.91;5066853;28;51076;-55
2022/01/17 06:47:25;;;;;;;;;4.75;4.25;;;;;20.36;36.85;103214.94;5076035;28;51330;-57
2022/01/17 06:49:50;;;;;;;;;5.25;4.00;;;;;20.41;36.83;103227.16;5056806;28;51087;-50
2022/01/17 06:52:16;;;;;;;;;7.50;4.00;;;;;20.48;36.67;103232.91;5058993;28;51147;-58
2022/01/17 06:54:41;;;;;;;;;7.25;5.25;;;;;20.55;36.82;103228.47;5060128;28;51964;-57
2022/01/17 06:57:07;;;;;;;;;8.00;5.25;;;;;20.61;36.89;103213.16;5073216;27;51110;-57
2022/01/17 06:59:32;;;;;;;;;5.25;5.00;;;;;20.66;36.83;103219.91;5055666;28;51086;-57
2022/01/17 07:01:57;;;;;;;;;5.75;4.25;;;;;20.73;37.11;103211.81;5073511;28;51240;-57
2022/01/17 07:04:23;;;;;;;;;6.00;4.50;;;;;20.80;37.24;103212.03;5067708;28;51766;-57
2022/01/17 07:06:48;;;;;;;;;7.25;5.25;;;;;20.87;37.54;103230.47;5076284;28;51340;-59
2022/01/17 07:09:16;;;;;;;;;6.00;5.00;;;;;20.94;37.55;103222.38;5074969;28;51129;-58
2022/01/17 07:11:43;;;;;;;;;4.75;4.75;;;;;21.00;37.20;103224.50;5075287;27;51216;-56
2022/01/17 07:14:10;;;;;;;;;7.25;5.50;;;;;21.07;37.52;103252.25;5073418;28;52462;-55
2022/01/17 07:16:37;;;;;;;;;9.50;5.00;;;;;21.12;37.38;103258.09;5061594;28;51260;-57
2022/01/17 07:19:03;;;;;;;;;5.50;5.50;;;;;21.19;37.39;103273.81;5055654;27;51077;-56
2022/01/17 07:21:28;;;;;;;;;10.00;7.00;;;;;21.24;37.29;103293.44;5056100;28;51321;-56
2022/01/17 07:23:54;;;;;;;;;7.50;5.00;;;;;21.28;37.12;103294.88;5056919;28;51932;-57
2022/01/17 07:26:20;;;;;;;;;6.75;6.75;;;;;21.35;36.81;103303.31;5074266;27;51167;-57
2022/01/17 07:28:45;;;;;;;;;9.00;9.00;;;;;21.40;36.80;103295.41;5064358;28;51169;-58
2022/01/17 07:31:10;;;;;;;;;8.00;6.75;;;;;21.47;37.07;103279.06;5061758;28;51196;-58
2022/01/17 07:33:37;;;;;;;;;9.25;7.00;;;;;21.51;36.46;103262.00;5064778;28;51101;-57
2022/01/17 07:36:05;;;;;;;;;9.75;7.00;;;;;21.54;36.73;103261.63;5055503;28;51100;-58
2022/01/17 07:38:31;;;;;;;;;7.75;6.00;;;;;21.58;36.39;103262.19;5055095;28;51154;-59
2022/01/17 07:40:56;;;;;;;;;6.75;5.25;;;;;21.62;36.44;103263.53;5057057;28;51207;-58
2022/01/17 07:43:21;;;;;;;;;6.75;6.75;;;;;21.67;36.19;103263.88;5056916;28;51790;-50
2022/01/17 07:46:02;;;;;;;;;11.25;8.00;;;;;21.71;36.03;103257.00;5054357;28;50986;-54
2022/01/17 07:50:59;;;;;;;;;5.75;5.00;;;;;21.79;36.01;103258.91;5069068;28;51070;-50
2022/01/17 07:53:25;;;;;;;;;9.50;7.00;;;;;21.83;36.26;103268.53;5082320;27;51731;-58
2022/01/17 07:55:50;;;;;;;;;7.00;7.00;;;;;21.88;36.16;103285.41;5072644;27;51243;-59
2022/01/17 07:58:16;;;;;;;;;11.00;6.25;;;;;21.93;36.19;103277.50;5073060;27;51155;-57
2022/01/17 08:00:41;;;;;;;;;11.00;6.00;;;;;21.97;36.51;103286.28;5062318;28;51252;-56
2022/01/17 08:03:06;;;;;;;;;9.50;8.00;;;;;22.01;36.62;103279.41;5054434;28;51681;-58
2022/01/17 08:05:33;;;;;;;;;6.00;6.00;;;;;22.04;36.33;103288.19;5056372;28;51046;-57
2022/01/17 08:08:00;;;;;;;;;8.25;6.25;;;;;22.07;36.05;103293.38;5072230;28;51099;-56
2022/01/17 08:10:25;;;;;;;;;5.25;4.75;;;;;22.10;36.18;103289.44;5074371;27;50952;-57
2022/01/17 08:12:50;;;;;;;;;9.25;8.00;;;;;22.09;35.50;103288.56;5076355;28;51002;-56
2022/01/17 08:15:16;;;;;;;;;6.25;5.25;;;;;22.07;35.51;103290.63;5075408;28;51157;-51
2022/01/17 08:17:45;;;;;;;;;9.50;7.50;;;;;22.03;35.80;103302.16;5057032;28;51134;-58
2022/01/17 08:20:10;;;;;;;;;20.25;19.25;;;;;21.96;34.80;103304.75;5057563;28;51361;-57
2022/01/17 08:22:36;;;;;;;;;22.00;21.75;;;;;21.84;34.34;103309.75;5056826;28;52168;-59
2022/01/17 08:25:02;;;;;;;;;19.75;18.75;;;;;21.70;34.03;103310.44;5057152;28;51144;-58
2022/01/17 08:27:28;;;;;;;;;23.00;20.00;;;;;21.56;33.95;103316.63;5085032;27;51158;-57
2022/01/17 08:29:54;;;;;;;;;25.75;21.25;;;;;21.39;34.04;103307.47;5096879;27;50975;-57
2022/01/17 08:32:20;;;;;;;;;19.75;16.75;;;;;21.27;34.14;103297.81;5098015;27;52013;-57
2022/01/17 08:34:46;;;;;;;;;19.50;18.00;;;;;21.21;34.21;103293.78;5079638;27;51145;-58
2022/01/17 08:37:11;;;;;;;;;13.00;13.00;;;;;21.22;34.21;103308.44;5073454;28;51293;-58
2022/01/17 08:39:36;;;;;;;;;13.00;12.25;;;;;21.24;34.42;103309.13;5077162;27;51088;-58
2022/01/17 08:42:10;;;;;;;;;14.50;9.25;;;;;21.27;34.16;103311.59;5077157;28;51921;-58
2022/01/17 08:44:36;;;;;;;;;12.75;10.75;;;;;21.31;34.40;103318.47;5076286;28;51210;-56
2022/01/17 08:47:01;;;;;;;;;10.50;8.75;;;;;21.34;34.14;103318.13;5076747;28;51147;-58
2022/01/17 08:49:26;;;;;;;;;10.75;10.00;;;;;21.37;34.00;103316.97;5066254;28;51145;-57
2022/01/17 08:51:52;;;;;;;;;9.25;8.00;;;;;21.41;34.03;103321.09;5066854;28;51081;-57
2022/01/17 08:54:17;;;;;;;;;10.75;10.50;;;;;21.44;34.02;103318.84;5076219;28;50953;-57
2022/01/17 08:56:42;;;;;;;;;9.75;9.75;;;;;21.46;34.07;103318.66;5075096;28;51258;-58
2022/01/17 08:59:08;;;;;;;;;10.00;10.00;;;;;21.47;34.40;103309.41;5077021;28;51433;-57
2022/01/17 09:01:33;;;;;;;;;10.50;9.00;;;;;21.50;34.31;103325.59;5085715;27;51215;-57
2022/01/17 09:03:58;;;;;;;;;10.50;9.00;;;;;21.53;34.54;103325.25;5075808;28;51412;-56
2022/01/17 09:06:24;;;;;;;;;11.00;9.25;;;;;21.56;34.24;103316.63;5077012;28;51056;-57
2022/01/17 09:08:50;;;;;;;;;9.25;9.25;;;;;21.59;34.63;103322.69;5060200;28;51210;-57
2022/01/17 09:11:15;;;;;;;;;8.25;8.00;;;;;21.63;34.33;103339.75;5056335;28;51871;-57
2022/01/17 09:13:41;;;;;;;;;7.25;7.00;;;;;21.66;34.59;103330.25;5056959;28;51041;-58
2022/01/17 09:16:08;;;;;;;;;9.25;7.50;;;;;21.69;33.99;103332.69;5056405;28;51246;-57
2022/01/17 09:18:34;;;;;;;;;9.75;8.00;;;;;21.72;34.44;103335.97;5056672;28;51396;-57
2022/01/17 09:20:59;;;;;;;;;10.25;8.00;;;;;21.75;34.08;103349.41;5056378;28;51997;-55
2022/01/17 09:23:25;;;;;;;;;9.50;8.25;;;;;21.78;34.31;103357.38;5066633;28;51021;-58
2022/01/17 09:25:51;;;;;;;;;9.25;9.25;;;;;21.83;34.75;103365.13;5071502;27;51251;-58
2022/01/17 09:28:16;;;;;;;;;7.75;7.75;;;;;21.84;34.52;103373.22;5084551;27;51023;-57
2022/01/17 09:30:42;;;;;;;;;9.75;7.00;;;;;21.86;34.58;103375.81;5076489;27;52863;-58
2022/01/17 09:33:07;;;;;;;;;8.00;6.00;;;;;21.89;34.68;103390.13;5071665;27;51080;-58
2022/01/17 09:35:34;;;;;;;;;8.00;6.25;;;;;21.90;34.60;103393.75;5060711;28;51437;-58
2022/01/17 09:38:00;;;;;;;;;6.00;6.00;;;;;21.92;34.46;103399.09;5087467;27;51097;-57
2022/01/17 09:40:26;;;;;;;;;6.25;6.25;;;;;21.94;34.20;103402.53;5055979;28;51158;-58
2022/01/17 09:42:53;;;;;;;;;11.25;9.25;;;;;21.95;34.47;103393.22;5056076;28;51027;-57
2022/01/17 09:45:21;;;;;;;;;5.50;4.75;;;;;21.97;34.19;103394.78;5056364;28;51406;-58
2022/01/17 09:47:47;;;;;;;;;6.00;6.00;;;;;22.00;34.08;103377.03;5056259;28;51309;-58
2022/01/17 09:50:19;;;;;;;;;8.25;8.00;;;;;22.02;33.95;103372.19;5056089;28;52460;-58
2022/01/17 09:52:47;;;;;;;;;6.75;6.75;;;;;22.06;34.08;103365.28;5056618;28;51086;-58
2022/01/17 09:55:25;;;;;;;;;7.25;7.00;;;;;22.09;34.38;103376.91;5056965;28;51181;-58
2022/01/17 09:58:07;;;;;;;;;10.25;6.25;;;;;22.12;34.74;103401.41;5056875;28;51224;-58
2022/01/17 10:00:35;;;;;;;;;14.00;12.00;;;;;22.16;34.86;103405.53;5087262;27;52638;-56
2022/01/17 10:03:06;;;;;;;;;14.75;14.50;;;;;22.21;34.58;103412.44;5063505;28;51219;-58
2022/01/17 10:05:34;;;;;;;;;19.25;17.25;;;;;22.26;35.26;103432.97;5075320;28;51101;-57
2022/01/17 10:08:03;;;;;;;;;25.25;19.25;;;;;22.27;35.12;103434.69;5076015;27;51402;-58
2022/01/17 10:10:54;;;;;;;;;28.00;23.00;;;;;22.29;35.36;103429.00;5076307;28;50994;-58
2022/01/17 10:13:37;;;;;;;;;27.00;24.75;;;;;22.29;35.21;103438.13;5076031;28;51422;-56
2022/01/17 10:16:16;;;;;;;;;22.25;19.00;;;;;22.30;35.54;103427.94;5076511;28;51492;-57
2022/01/17 10:18:53;;;;;;;;;27.75;25.00;;;;;22.32;35.94;103428.66;5076481;28;50967;-58
2022/01/17 10:21:33;;;;;;;;;22.50;18.75;;;;;22.34;36.46;103435.72;5067868;27;51362;-58
2022/01/17 10:24:18;;;;;;;;;17.25;15.50;;;;;22.37;36.79;103426.22;5056087;28;51465;-57
2022/01/17 10:34:54;;;;;;;;;19.00;17.00;;;;;22.57;36.72;103432.25;5061150;28;51246;-58
2022/01/17 10:37:22;;;;;;;;;21.50;18.25;;;;;22.60;36.77;103431.91;5068718;28;51147;-58
2022/01/17 10:40:00;;;;;;;;;20.75;16.25;;;;;22.62;36.79;103432.63;5057276;28;51415;-58
2022/01/17 10:42:41;;;;;;;;;16.25;14.00;;;;;22.64;36.80;103444.34;5057079;28;51983;-58
2022/01/17 10:45:07;;;;;;;;;16.75;13.50;;;;;22.66;36.57;103448.66;5074529;27;51012;-58
2022/01/17 10:47:36;;;;;;;;;14.00;11.50;;;;;22.69;36.63;103441.91;5073966;27;51194;-59
2022/01/17 10:50:06;;;;;;;;;13.25;12.00;;;;;22.71;36.11;103432.41;5070521;28;51188;-58
2022/01/17 10:52:33;;;;;;;;;13.00;10.00;;;;;22.73;36.24;103437.78;5061402;28;51869;-58
2022/01/17 10:55:06;;;;;;;;;10.00;9.00;;;;;22.77;36.39;103431.72;5073197;28;51366;-58
2022/01/17 10:57:42;;;;;;;;;9.50;8.25;;;;;22.79;35.71;103417.72;5069975;27;51126;-58
2022/01/17 11:00:13;;;;;;;;;10.75;10.00;;;;;22.81;36.15;103404.56;5093563;27;51368;-58
2022/01/17 11:02:42;;;;;;;;;8.75;8.75;;;;;22.83;35.63;103388.72;5075443;27;51878;-57
2022/01/17 11:05:10;;;;;;;;;9.25;9.25;;;;;22.84;35.90;103376.66;5072307;27;51088;-57
2022/01/17 11:07:40;;;;;;;;;7.25;7.25;;;;;22.88;35.78;103388.19;5075184;27;51246;-57
2022/01/17 11:10:16;;;;;;;;;10.00;9.50;;;;;22.91;36.09;103388.69;5067730;28;50962;-57
2022/01/17 11:12:42;;;;;;;;;10.75;7.75;;;;;22.95;35.79;103380.94;5067190;28;51497;-58
2022/01/17 11:15:07;;;;;;;;;7.25;7.25;;;;;23.00;35.83;103387.63;5074992;28;51024;-58
2022/01/17 11:17:34;;;;;;;;;9.50;8.00;;;;;23.04;35.47;103382.63;5064320;28;51100;-57
2022/01/17 11:20:06;;;;;;;;;5.50;4.25;;;;;23.11;35.80;103377.22;5069827;28;51595;-57
2022/01/17 11:22:34;;;;;;;;;9.75;7.50;;;;;23.13;35.74;103381.53;5072769;27;51768;-56
2022/01/17 11:25:00;;;;;;;;;5.00;5.00;;;;;23.13;35.51;103394.47;5068619;28;51175;-60
2022/01/17 11:27:26;;;;;;;;;4.33;4.33;;;;;23.08;35.97;103389.50;5068845;27;51110;-58
2022/01/17 11:29:52;;;;;;;;;9.25;5.50;;;;;23.06;35.75;103380.53;5065587;28;51188;-57
2022/01/17 11:32:18;;;;;;;;;10.50;8.50;;;;;23.02;35.66;103374.47;5074182;28;51935;-58
2022/01/17 11:34:43;;;;;;;;;8.75;7.25;;;;;22.99;35.88;103374.84;5072624;28;51057;-57
2022/01/17 11:37:10;;;;;;;;;8.25;7.50;;;;;22.99;36.98;103363.78;5066376;28;51289;-58
2022/01/17 11:39:51;;;;;;;;;10.00;8.00;;;;;22.97;38.13;103367.78;5054606;28;50992;-57
2022/01/17 11:42:46;;;;;;;;;9.00;6.50;;;;;22.96;38.66;103364.16;5054148;28;51800;-57
2022/01/17 11:45:23;;;;;;;;;13.25;10.75;;;;;22.96;38.14;103366.91;5054190;28;51406;-57
2022/01/17 11:47:50;;;;;;;;;7.25;7.00;;;;;22.98;37.71;103375.88;5061692;28;51063;-57
2022/01/17 11:50:27;;;;;;;;;8.75;8.00;;;;;23.02;37.89;103368.94;5076322;27;50980;-57